sensor_id;sensor_type;location;lat;lon;timestamp;pressure;altitude;pressure_sealevel;temperature;humidity
46223;BME280;31943;51.410;7.564;2023-09-19T00:01:00;99492.13;;;17.80;66.17
46223;BME280;31943;51.410;7.564;2023-09-19T00:03:27;99499.16;;;17.79;66.28
46223;BME280;31943;51.410;7.564;2023-09-19T00:05:53;99498.28;;;17.79;66.42
46223;BME280;31943;51.410;7.564;2023-09-19T00:08:18;99502.72;;;17.78;65.96
46223;BME280;31943;51.410;7.564;2023-09-19T00:10:44;99508.00;;;17.78;65.83
46223;BME280;31943;51.410;7.564;2023-09-19T00:13:10;99500.22;;;17.74;65.75
46223;BME280;31943;51.410;7.564;2023-09-19T00:15:37;99501.09;;;17.74;65.88
46223;BME280;31943;51.410;7.564;2023-09-19T00:18:03;99505.56;;;17.72;66.00
46223;BME280;31943;51.410;7.564;2023-09-19T00:20:30;99510.91;;;17.69;65.68
46223;BME280;31943;51.410;7.564;2023-09-19T00:22:56;99525.25;;;17.61;65.55
46223;BME280;31943;51.410;7.564;2023-09-19T00:25:21;99524.63;;;17.52;65.62
46223;BME280;31943;51.410;7.564;2023-09-19T00:27:47;99524.72;;;17.49;65.48
46223;BME280;31943;51.410;7.564;2023-09-19T00:30:13;99525.56;;;17.50;65.47
46223;BME280;31943;51.410;7.564;2023-09-19T00:32:39;99530.06;;;17.46;65.40
46223;BME280;31943;51.410;7.564;2023-09-19T00:35:05;99522.31;;;17.42;64.92
46223;BME280;31943;51.410;7.564;2023-09-19T00:37:32;99527.63;;;17.40;64.65
46223;BME280;31943;51.410;7.564;2023-09-19T00:39:57;99533.81;;;17.39;64.68
46223;BME280;31943;51.410;7.564;2023-09-19T00:42:23;99527.75;;;17.35;64.88
46223;BME280;31943;51.410;7.564;2023-09-19T00:44:49;99529.63;;;17.32;64.46
46223;BME280;31943;51.410;7.564;2023-09-19T00:47:14;99528.84;;;17.28;64.68
46223;BME280;31943;51.410;7.564;2023-09-19T00:49:40;99536.84;;;17.25;64.66
46223;BME280;31943;51.410;7.564;2023-09-19T00:52:05;99539.53;;;17.24;64.66
46223;BME280;31943;51.410;7.564;2023-09-19T00:54:33;99547.44;;;17.24;64.83
46223;BME280;31943;51.410;7.564;2023-09-19T00:57:00;99551.84;;;17.23;64.77
46223;BME280;31943;51.410;7.564;2023-09-19T00:59:26;99550.97;;;17.23;64.72
46223;BME280;31943;51.410;7.564;2023-09-19T01:01:53;99554.56;;;17.20;65.08
46223;BME280;31943;51.410;7.564;2023-09-19T01:04:19;99558.16;;;17.17;65.03
46223;BME280;31943;51.410;7.564;2023-09-19T01:06:45;99555.72;;;17.11;64.96
46223;BME280;31943;51.410;7.564;2023-09-19T01:09:10;99560.97;;;17.11;65.05
46223;BME280;31943;51.410;7.564;2023-09-19T01:11:40;99558.19;;;17.16;64.80
46223;BME280;31943;51.410;7.564;2023-09-19T01:14:15;99553.78;;;17.16;64.89
46223;BME280;31943;51.410;7.564;2023-09-19T01:16:49;99562.69;;;17.12;64.79
46223;BME280;31943;51.410;7.564;2023-09-19T01:19:35;99561.72;;;17.15;64.74
46223;BME280;31943;51.410;7.564;2023-09-19T01:22:13;99557.41;;;17.12;64.37
46223;BME280;31943;51.410;7.564;2023-09-19T01:28:24;99564.50;;;17.10;64.58
46223;BME280;31943;51.410;7.564;2023-09-19T01:30:57;99567.28;;;17.06;64.64
46223;BME280;31943;51.410;7.564;2023-09-19T01:33:24;99574.31;;;17.05;64.57
46223;BME280;31943;51.410;7.564;2023-09-19T01:35:49;99567.38;;;17.01;64.58
46223;BME280;31943;51.410;7.564;2023-09-19T01:38:15;99572.78;;;16.96;64.42
46223;BME280;31943;51.410;7.564;2023-09-19T01:40:42;99568.38;;;16.97;64.44
46223;BME280;31943;51.410;7.564;2023-09-19T01:43:12;99582.47;;;16.96;64.17
46223;BME280;31943;51.410;7.564;2023-09-19T01:45:48;99593.19;;;16.90;64.53
46223;BME280;31943;51.410;7.564;2023-09-19T01:48:20;99586.09;;;16.92;64.46
46223;BME280;31943;51.410;7.564;2023-09-19T01:50:56;99594.03;;;16.90;64.56
46223;BME280;31943;51.410;7.564;2023-09-19T01:53:26;99593.28;;;16.85;64.49
46223;BME280;31943;51.410;7.564;2023-09-19T01:55:53;99589.94;;;16.78;64.47
46223;BME280;31943;51.410;7.564;2023-09-19T01:58:22;99596.19;;;16.74;64.84
46223;BME280;31943;51.410;7.564;2023-09-19T02:00:50;99605.84;;;16.74;64.69
46223;BME280;31943;51.410;7.564;2023-09-19T02:03:20;99611.16;;;16.72;64.70
46223;BME280;31943;51.410;7.564;2023-09-19T02:05:49;99603.34;;;16.68;64.59
46223;BME280;31943;51.410;7.564;2023-09-19T02:08:16;99595.56;;;16.65;64.75
46223;BME280;31943;51.410;7.564;2023-09-19T02:10:42;99604.44;;;16.60;64.57
46223;BME280;31943;51.410;7.564;2023-09-19T02:13:07;99594.81;;;16.58;64.90
46223;BME280;31943;51.410;7.564;2023-09-19T02:15:33;99603.75;;;16.52;64.91
46223;BME280;31943;51.410;7.564;2023-09-19T02:17:58;99595.91;;;16.51;64.75
46223;BME280;31943;51.410;7.564;2023-09-19T02:20:25;99609.91;;;16.53;64.63
46223;BME280;31943;51.410;7.564;2023-09-19T02:22:51;99609.78;;;16.56;64.41
46223;BME280;31943;51.410;7.564;2023-09-19T02:25:16;99615.06;;;16.56;64.14
46223;BME280;31943;51.410;7.564;2023-09-19T02:27:42;99616.84;;;16.55;64.02
46223;BME280;31943;51.410;7.564;2023-09-19T02:30:08;99609.88;;;16.54;63.44
46223;BME280;31943;51.410;7.564;2023-09-19T02:32:33;99620.31;;;16.57;63.82
46223;BME280;31943;51.410;7.564;2023-09-19T02:34:59;99622.09;;;16.57;63.80
46223;BME280;31943;51.410;7.564;2023-09-19T02:37:26;99628.28;;;16.54;63.44
46223;BME280;31943;51.410;7.564;2023-09-19T02:39:52;99635.28;;;16.55;63.36
46223;BME280;31943;51.410;7.564;2023-09-19T02:42:18;99634.44;;;16.53;63.55
46223;BME280;31943;51.410;7.564;2023-09-19T02:44:43;99623.09;;;16.51;63.72
46223;BME280;31943;51.410;7.564;2023-09-19T02:47:09;99628.31;;;16.53;63.90
46223;BME280;31943;51.410;7.564;2023-09-19T02:49:34;99625.69;;;16.53;63.71
46223;BME280;31943;51.410;7.564;2023-09-19T02:52:00;99620.44;;;16.53;63.92
46223;BME280;31943;51.410;7.564;2023-09-19T02:54:27;99623.94;;;16.52;63.56
46223;BME280;31943;51.410;7.564;2023-09-19T02:56:53;99624.88;;;16.51;63.67
46223;BME280;31943;51.410;7.564;2023-09-19T02:59:19;99629.34;;;16.47;63.79
46223;BME280;31943;51.410;7.564;2023-09-19T03:01:44;99633.78;;;16.45;63.68
46223;BME280;31943;51.410;7.564;2023-09-19T03:04:10;99630.28;;;16.45;63.58
46223;BME280;31943;51.410;7.564;2023-09-19T03:06:35;99639.03;;;16.45;63.85
46223;BME280;31943;51.410;7.564;2023-09-19T03:09:01;99631.16;;;16.45;63.69
46223;BME280;31943;51.410;7.564;2023-09-19T03:11:29;99646.13;;;16.43;63.37
46223;BME280;31943;51.410;7.564;2023-09-19T03:13:54;99646.19;;;16.40;63.38
46223;BME280;31943;51.410;7.564;2023-09-19T03:16:20;99646.22;;;16.38;63.47
46223;BME280;31943;51.410;7.564;2023-09-19T03:18:46;99653.34;;;16.35;63.24
46223;BME280;31943;51.410;7.564;2023-09-19T03:21:11;99650.72;;;16.33;63.17
46223;BME280;31943;51.410;7.564;2023-09-19T03:23:37;99656.88;;;16.32;62.88
46223;BME280;31943;51.410;7.564;2023-09-19T03:26:04;99666.53;;;16.33;62.86
46223;BME280;31943;51.410;7.564;2023-09-19T03:28:33;99669.19;;;16.32;62.25
46223;BME280;31943;51.410;7.564;2023-09-19T03:31:00;99670.09;;;16.31;62.50
46223;BME280;31943;51.410;7.564;2023-09-19T03:33:25;99672.78;;;16.29;61.97
46223;BME280;31943;51.410;7.564;2023-09-19T03:35:52;99669.25;;;16.29;62.15
46223;BME280;31943;51.410;7.564;2023-09-19T03:38:17;99671.03;;;16.28;61.82
46223;BME280;31943;51.410;7.564;2023-09-19T03:40:43;99666.69;;;16.26;61.60
46223;BME280;31943;51.410;7.564;2023-09-19T03:43:09;99663.22;;;16.25;61.82
46223;BME280;31943;51.410;7.564;2023-09-19T03:45:36;99659.75;;;16.23;61.38
46223;BME280;31943;51.410;7.564;2023-09-19T03:48:08;99663.25;;;16.24;61.07
46223;BME280;31943;51.410;7.564;2023-09-19T03:50:34;99671.19;;;16.20;61.40
46223;BME280;31943;51.410;7.564;2023-09-19T03:52:59;99667.66;;;16.23;61.36
46223;BME280;31943;51.410;7.564;2023-09-19T03:55:25;99661.56;;;16.19;61.18
46223;BME280;31943;51.410;7.564;2023-09-19T03:57:50;99660.75;;;16.17;61.38
46223;BME280;31943;51.410;7.564;2023-09-19T04:00:48;99671.31;;;16.16;61.09
46223;BME280;31943;51.410;7.564;2023-09-19T04:03:14;99667.00;;;16.12;61.17
46223;BME280;31943;51.410;7.564;2023-09-19T04:05:39;99663.56;;;16.08;61.00
46223;BME280;31943;51.410;7.564;2023-09-19T04:08:05;99663.53;;;16.10;61.09
46223;BME280;31943;51.410;7.564;2023-09-19T04:10:31;99667.84;;;16.14;61.39
46223;BME280;31943;51.410;7.564;2023-09-19T04:12:56;99662.50;;;16.17;60.92
46223;BME280;31943;51.410;7.564;2023-09-19T04:15:22;99660.75;;;16.17;60.74
46223;BME280;31943;51.410;7.564;2023-09-19T04:17:50;99662.44;;;16.20;60.83
46223;BME280;31943;51.410;7.564;2023-09-19T04:20:16;99667.84;;;16.14;60.65
46223;BME280;31943;51.410;7.564;2023-09-19T04:22:42;99662.63;;;16.11;60.92
46223;BME280;31943;51.410;7.564;2023-09-19T04:25:08;99670.53;;;16.11;61.07
46223;BME280;31943;51.410;7.564;2023-09-19T04:27:33;99672.25;;;16.13;61.46
46223;BME280;31943;51.410;7.564;2023-09-19T04:29:59;99665.22;;;16.14;61.49
46223;BME280;31943;51.410;7.564;2023-09-19T04:32:28;99670.38;;;16.17;61.16
46223;BME280;31943;51.410;7.564;2023-09-19T04:34:55;99665.94;;;16.19;61.05
46223;BME280;31943;51.410;7.564;2023-09-19T04:37:21;99661.59;;;16.18;60.99
46223;BME280;31943;51.410;7.564;2023-09-19T04:39:46;99674.78;;;16.18;61.27
46223;BME280;31943;51.410;7.564;2023-09-19T04:42:12;99670.34;;;16.18;60.87
46223;BME280;31943;51.410;7.564;2023-09-19T04:44:38;99674.81;;;16.15;60.77
46223;BME280;31943;51.410;7.564;2023-09-19T04:47:04;99681.88;;;16.13;61.05
46223;BME280;31943;51.410;7.564;2023-09-19T04:49:29;99683.63;;;16.14;61.21
46223;BME280;31943;51.410;7.564;2023-09-19T04:51:56;99674.00;;;16.13;60.92
46223;BME280;31943;51.410;7.564;2023-09-19T04:54:22;99676.72;;;16.10;60.98
46223;BME280;31943;51.410;7.564;2023-09-19T04:56:48;99679.31;;;16.11;60.88
46223;BME280;31943;51.410;7.564;2023-09-19T04:59:13;99684.63;;;16.08;60.88
46223;BME280;31943;51.410;7.564;2023-09-19T05:01:39;99689.06;;;16.06;61.07
46223;BME280;31943;51.410;7.564;2023-09-19T05:04:05;99682.00;;;16.08;61.23
46223;BME280;31943;51.410;7.564;2023-09-19T05:06:30;99691.66;;;16.08;60.93
46223;BME280;31943;51.410;7.564;2023-09-19T05:08:57;99686.44;;;16.06;60.97
46223;BME280;31943;51.410;7.564;2023-09-19T05:11:23;99681.19;;;16.05;60.82
46223;BME280;31943;51.410;7.564;2023-09-19T05:13:49;99682.16;;;16.00;60.43
46223;BME280;31943;51.410;7.564;2023-09-19T05:16:14;99689.16;;;16.01;60.66
46223;BME280;31943;51.410;7.564;2023-09-19T05:18:40;99698.78;;;16.02;60.72
46223;BME280;31943;51.410;7.564;2023-09-19T05:21:05;99694.34;;;16.05;60.54
46223;BME280;31943;51.410;7.564;2023-09-19T05:23:31;99692.63;;;16.04;60.27
46223;BME280;31943;51.410;7.564;2023-09-19T05:25:58;99707.53;;;16.03;60.41
46223;BME280;31943;51.410;7.564;2023-09-19T05:28:24;99706.63;;;16.06;60.69
46223;BME280;31943;51.410;7.564;2023-09-19T05:30:49;99709.19;;;16.07;60.39
46223;BME280;31943;51.410;7.564;2023-09-19T05:33:15;99724.06;;;16.11;60.53
46223;BME280;31943;51.410;7.564;2023-09-19T05:35:40;99724.88;;;16.13;60.43
46223;BME280;31943;51.410;7.564;2023-09-19T05:38:07;99727.53;;;16.13;60.22
46223;BME280;31943;51.410;7.564;2023-09-19T05:40:32;99739.88;;;16.10;60.53
46223;BME280;31943;51.410;7.564;2023-09-19T05:42:59;99746.03;;;16.07;60.59
46223;BME280;31943;51.410;7.564;2023-09-19T05:45:25;99744.31;;;16.08;60.79
46223;BME280;31943;51.410;7.564;2023-09-19T05:47:51;99745.16;;;16.08;60.79
46223;BME280;31943;51.410;7.564;2023-09-19T05:50:17;99738.09;;;16.10;60.80
46223;BME280;31943;51.410;7.564;2023-09-19T05:52:42;99743.38;;;16.09;60.93
46223;BME280;31943;51.410;7.564;2023-09-19T05:55:08;99756.56;;;16.09;61.01
46223;BME280;31943;51.410;7.564;2023-09-19T05:57:34;99754.81;;;16.09;61.16
46223;BME280;31943;51.410;7.564;2023-09-19T06:00:01;99764.44;;;16.09;61.02
46223;BME280;31943;51.410;7.564;2023-09-19T06:02:26;99765.34;;;16.09;61.28
46223;BME280;31943;51.410;7.564;2023-09-19T06:04:53;99771.44;;;16.11;61.48
46223;BME280;31943;51.410;7.564;2023-09-19T06:07:18;99767.91;;;16.11;61.14
46223;BME280;31943;51.410;7.564;2023-09-19T06:09:44;99768.84;;;16.08;61.09
46223;BME280;31943;51.410;7.564;2023-09-19T06:12:09;99769.69;;;16.10;61.12
46223;BME280;31943;51.410;7.564;2023-09-19T06:14:35;99773.13;;;16.14;61.29
46223;BME280;31943;51.410;7.564;2023-09-19T06:17:02;99769.53;;;16.18;61.13
46223;BME280;31943;51.410;7.564;2023-09-19T06:19:28;99784.38;;;16.22;61.01
46223;BME280;31943;51.410;7.564;2023-09-19T06:21:54;99779.94;;;16.23;61.01
46223;BME280;31943;51.410;7.564;2023-09-19T06:24:19;99778.13;;;16.26;60.91
46223;BME280;31943;51.410;7.564;2023-09-19T06:26:45;99774.50;;;16.32;60.84
46223;BME280;31943;51.410;7.564;2023-09-19T06:29:10;99778.84;;;16.34;60.60
46223;BME280;31943;51.410;7.564;2023-09-19T06:31:36;99773.66;;;16.31;60.88
46223;BME280;31943;51.410;7.564;2023-09-19T06:34:05;99768.34;;;16.33;60.99
46223;BME280;31943;51.410;7.564;2023-09-19T06:36:31;99773.66;;;16.31;60.70
46223;BME280;31943;51.410;7.564;2023-09-19T06:38:57;99768.38;;;16.31;61.02
46223;BME280;31943;51.410;7.564;2023-09-19T06:41:23;99773.66;;;16.31;61.05
46223;BME280;31943;51.410;7.564;2023-09-19T06:43:48;99780.69;;;16.31;60.58
46223;BME280;31943;51.410;7.564;2023-09-19T06:46:14;99787.66;;;16.32;60.87
46223;BME280;31943;51.410;7.564;2023-09-19T06:48:39;99779.78;;;16.32;60.67
46223;BME280;31943;51.410;7.564;2023-09-19T06:51:08;99774.38;;;16.38;60.58
46223;BME280;31943;51.410;7.564;2023-09-19T06:53:34;99779.59;;;16.41;60.66
46223;BME280;31943;51.410;7.564;2023-09-19T06:55:59;99770.69;;;16.47;60.58
46223;BME280;31943;51.410;7.564;2023-09-19T06:58:25;99772.28;;;16.52;60.65
46223;BME280;31943;51.410;7.564;2023-09-19T07:00:51;99778.34;;;16.57;60.54
46223;BME280;31943;51.410;7.564;2023-09-19T07:03:16;99786.53;;;16.45;60.31
46223;BME280;31943;51.410;7.564;2023-09-19T07:05:42;99793.47;;;16.48;60.46
46223;BME280;31943;51.410;7.564;2023-09-19T07:08:11;99796.06;;;16.51;60.55
46223;BME280;31943;51.410;7.564;2023-09-19T07:10:36;99793.38;;;16.52;60.54
46223;BME280;31943;51.410;7.564;2023-09-19T07:13:03;99793.38;;;16.52;60.66
46223;BME280;31943;51.410;7.564;2023-09-19T07:15:31;99802.22;;;16.50;60.80
46223;BME280;31943;51.410;7.564;2023-09-19T07:17:57;99806.47;;;16.57;60.47
46223;BME280;31943;51.410;7.564;2023-09-19T07:20:24;99809.81;;;16.64;60.83
46223;BME280;31943;51.410;7.564;2023-09-19T07:22:50;99798.22;;;16.72;60.38
46223;BME280;31943;51.410;7.564;2023-09-19T07:25:17;99796.28;;;16.80;60.36
46223;BME280;31943;51.410;7.564;2023-09-19T07:27:43;99798.03;;;16.82;60.34
46223;BME280;31943;51.410;7.564;2023-09-19T07:30:10;99788.38;;;16.80;60.41
46223;BME280;31943;51.410;7.564;2023-09-19T07:32:36;99795.28;;;16.88;60.04
46223;BME280;31943;51.410;7.564;2023-09-19T07:35:03;99806.56;;;16.93;60.06
46223;BME280;31943;51.410;7.564;2023-09-19T07:37:30;99811.81;;;16.94;59.85
46223;BME280;31943;51.410;7.564;2023-09-19T07:39:55;99808.25;;;16.95;60.05
46223;BME280;31943;51.410;7.564;2023-09-19T07:42:23;99809.09;;;16.97;59.97
46223;BME280;31943;51.410;7.564;2023-09-19T07:44:48;99807.34;;;16.98;59.81
46223;BME280;31943;51.410;7.564;2023-09-19T07:47:14;99816.03;;;17.02;60.06
46223;BME280;31943;51.410;7.564;2023-09-19T07:49:40;99807.88;;;17.11;59.40
46223;BME280;31943;51.410;7.564;2023-09-19T07:52:05;99817.44;;;17.16;59.29
46223;BME280;31943;51.410;7.564;2023-09-19T07:54:31;99820.09;;;17.15;59.52
46223;BME280;31943;51.410;7.564;2023-09-19T07:56:56;99813.06;;;17.15;59.31
46223;BME280;31943;51.410;7.564;2023-09-19T07:59:24;99822.53;;;17.24;59.42
46223;BME280;31943;51.410;7.564;2023-09-19T08:01:49;99817.13;;;17.29;59.30
46223;BME280;31943;51.410;7.564;2023-09-19T08:04:16;99810.06;;;17.31;59.26
46223;BME280;31943;51.410;7.564;2023-09-19T08:06:44;99815.25;;;17.34;59.09
46223;BME280;31943;51.410;7.564;2023-09-19T08:09:10;99818.06;;;17.26;58.83
46223;BME280;31943;51.410;7.564;2023-09-19T08:11:37;99827.81;;;17.23;59.23
46223;BME280;31943;51.410;7.564;2023-09-19T08:14:03;99825.44;;;17.13;59.35
46223;BME280;31943;51.410;7.564;2023-09-19T08:16:32;99821.66;;;17.24;59.34
46223;BME280;31943;51.410;7.564;2023-09-19T08:18:58;99830.38;;;17.27;59.22
46223;BME280;31943;51.410;7.564;2023-09-19T08:21:23;99836.31;;;17.35;59.45
46223;BME280;31943;51.410;7.564;2023-09-19T08:23:49;99842.19;;;17.47;58.79
46223;BME280;31943;51.410;7.564;2023-09-19T08:26:15;99838.59;;;17.51;58.60
46223;BME280;31943;51.410;7.564;2023-09-19T08:28:41;99832.16;;;17.61;58.25
46223;BME280;31943;51.410;7.564;2023-09-19T08:31:07;99836.63;;;17.59;57.84
46223;BME280;31943;51.410;7.564;2023-09-19T08:33:36;99846.38;;;17.55;58.06
46223;BME280;31943;51.410;7.564;2023-09-19T08:36:02;99835.97;;;17.49;57.70
46223;BME280;31943;51.410;7.564;2023-09-19T08:38:28;99853.81;;;17.39;58.03
46223;BME280;31943;51.410;7.564;2023-09-19T08:40:53;99854.75;;;17.37;58.42
46223;BME280;31943;51.410;7.564;2023-09-19T08:43:21;99853.91;;;17.35;58.63
46223;BME280;31943;51.410;7.564;2023-09-19T08:45:47;99852.94;;;17.39;58.52
46223;BME280;31943;51.410;7.564;2023-09-19T08:48:22;99855.44;;;17.45;58.61
46223;BME280;31943;51.410;7.564;2023-09-19T08:50:52;99850.81;;;17.53;58.31
46223;BME280;31943;51.410;7.564;2023-09-19T08:53:30;99864.72;;;17.60;57.95
46223;BME280;31943;51.410;7.564;2023-09-19T08:55:56;99857.41;;;17.71;57.65
46223;BME280;31943;51.410;7.564;2023-09-19T08:58:25;99850.94;;;17.83;57.17
46223;BME280;31943;51.410;7.564;2023-09-19T09:00:52;99858.69;;;17.91;57.14
46223;BME280;31943;51.410;7.564;2023-09-19T09:03:19;99856.59;;;18.04;56.79
46223;BME280;31943;51.410;7.564;2023-09-19T09:05:46;99856.19;;;18.19;56.74
46223;BME280;31943;51.410;7.564;2023-09-19T09:08:13;99862.19;;;18.24;56.59
46223;BME280;31943;51.410;7.564;2023-09-19T09:10:39;99848.75;;;18.33;55.88
46223;BME280;31943;51.410;7.564;2023-09-19T09:13:04;99848.56;;;18.40;56.10
46223;BME280;31943;51.410;7.564;2023-09-19T09:15:30;99852.06;;;18.40;55.48
46223;BME280;31943;51.410;7.564;2023-09-19T09:17:57;99855.53;;;18.42;55.66
46223;BME280;31943;51.410;7.564;2023-09-19T09:20:23;99854.47;;;18.48;55.89
46223;BME280;31943;51.410;7.564;2023-09-19T09:22:51;99849.91;;;18.54;55.51
46223;BME280;31943;51.410;7.564;2023-09-19T09:25:19;99856.69;;;18.63;55.37
46223;BME280;31943;51.410;7.564;2023-09-19T09:27:47;99852.13;;;18.68;55.29
46223;BME280;31943;51.410;7.564;2023-09-19T09:30:32;99847.91;;;18.63;55.24
46223;BME280;31943;51.410;7.564;2023-09-19T09:33:08;99841.84;;;18.59;55.14
46223;BME280;31943;51.410;7.564;2023-09-19T09:35:34;99844.41;;;18.62;55.38
46223;BME280;31943;51.410;7.564;2023-09-19T09:38:00;99838.81;;;18.71;54.92
46223;BME280;31943;51.410;7.564;2023-09-19T09:40:35;99828.81;;;18.83;54.61
46223;BME280;31943;51.410;7.564;2023-09-19T09:43:25;99831.00;;;18.98;53.38
46223;BME280;31943;51.410;7.564;2023-09-19T09:46:06;99836.00;;;19.07;53.26
46223;BME280;31943;51.410;7.564;2023-09-19T09:48:32;99826.09;;;19.14;53.23
46223;BME280;31943;51.410;7.564;2023-09-19T09:50:58;99827.47;;;19.26;52.93
46223;BME280;31943;51.410;7.564;2023-09-19T09:53:25;99836.03;;;19.34;53.38
46223;BME280;31943;51.410;7.564;2023-09-19T09:55:59;99839.34;;;19.41;53.36
46223;BME280;31943;51.410;7.564;2023-09-19T09:58:25;99835.59;;;19.46;53.27
46223;BME280;31943;51.410;7.564;2023-09-19T10:00:55;99836.53;;;19.45;52.93
46223;BME280;31943;51.410;7.564;2023-09-19T10:03:21;99826.28;;;19.34;53.29
46223;BME280;31943;51.410;7.564;2023-09-19T10:05:53;99833.81;;;19.20;52.78
46223;BME280;31943;51.410;7.564;2023-09-19T10:08:18;99833.09;;;19.15;53.28
46223;BME280;31943;51.410;7.564;2023-09-19T10:10:44;99833.97;;;19.15;52.74
46223;BME280;31943;51.410;7.564;2023-09-19T10:13:13;99828.72;;;19.14;53.46
46223;BME280;31943;51.410;7.564;2023-09-19T10:15:39;99821.69;;;19.13;52.68
46223;BME280;31943;51.410;7.564;2023-09-19T10:18:05;99823.03;;;19.00;52.58
46223;BME280;31943;51.410;7.564;2023-09-19T10:20:31;99820.38;;;19.00;53.04
46223;BME280;31943;51.410;7.564;2023-09-19T10:22:58;99818.16;;;19.14;53.24
46223;BME280;31943;51.410;7.564;2023-09-19T10:25:26;99815.53;;;19.41;51.38
46223;BME280;31943;51.410;7.564;2023-09-19T10:27:53;99813.72;;;19.68;51.16
46223;BME280;31943;51.410;7.564;2023-09-19T10:30:22;99807.38;;;19.99;50.78
46223;BME280;31943;51.410;7.564;2023-09-19T10:32:57;99807.31;;;20.25;49.70
46223;BME280;31943;51.410;7.564;2023-09-19T10:35:25;99807.69;;;20.38;49.51
46223;BME280;31943;51.410;7.564;2023-09-19T10:37:54;99809.56;;;20.60;48.44
46223;BME280;31943;51.410;7.564;2023-09-19T10:40:20;99807.56;;;20.43;48.19
46223;BME280;31943;51.410;7.564;2023-09-19T10:42:48;99793.88;;;20.53;48.51
46223;BME280;31943;51.410;7.564;2023-09-19T10:45:17;99796.06;;;20.66;48.60
46223;BME280;31943;51.410;7.564;2023-09-19T10:47:44;99790.31;;;20.78;47.49
46223;BME280;31943;51.410;7.564;2023-09-19T10:50:19;99786.41;;;20.87;47.57
46223;BME280;31943;51.410;7.564;2023-09-19T10:52:46;99783.53;;;20.93;47.49
46223;BME280;31943;51.410;7.564;2023-09-19T10:55:15;99790.38;;;20.99;46.95
46223;BME280;31943;51.410;7.564;2023-09-19T10:57:44;99801.22;;;20.92;47.47
46223;BME280;31943;51.410;7.564;2023-09-19T11:00:10;99795.88;;;20.94;46.77
46223;BME280;31943;51.410;7.564;2023-09-19T11:02:36;99806.28;;;20.77;47.29
46223;BME280;31943;51.410;7.564;2023-09-19T11:05:13;99799.19;;;20.53;47.00
46223;BME280;31943;51.410;7.564;2023-09-19T11:07:59;99791.66;;;20.43;46.59
46223;BME280;31943;51.410;7.564;2023-09-19T11:10:44;99792.03;;;20.55;47.06
46223;BME280;31943;51.410;7.564;2023-09-19T11:13:24;99784.97;;;20.80;46.45
46223;BME280;31943;51.410;7.564;2023-09-19T11:16:03;99780.97;;;20.91;46.31
46223;BME280;31943;51.410;7.564;2023-09-19T11:18:51;99803.81;;;20.94;46.06
46223;BME280;31943;51.410;7.564;2023-09-19T11:21:53;99804.50;;;20.99;46.26
46223;BME280;31943;51.410;7.564;2023-09-19T11:24:31;99792.16;;;20.98;46.75
46223;BME280;31943;51.410;7.564;2023-09-19T11:27:12;99796.13;;;20.88;45.27
46223;BME280;31943;51.410;7.564;2023-09-19T11:29:38;99793.28;;;20.92;45.73
46223;BME280;31943;51.410;7.564;2023-09-19T11:32:04;99795.88;;;20.94;45.61
46223;BME280;31943;51.410;7.564;2023-09-19T11:34:40;99802.88;;;20.95;45.36
46223;BME280;31943;51.410;7.564;2023-09-19T11:40:10;99779.75;;;20.77;45.42
46223;BME280;31943;51.410;7.564;2023-09-19T11:42:42;99783.97;;;20.59;45.78
46223;BME280;31943;51.410;7.564;2023-09-19T11:45:07;99786.50;;;20.62;45.89
46223;BME280;31943;51.410;7.564;2023-09-19T11:47:53;99785.91;;;20.77;45.68
46223;BME280;31943;51.410;7.564;2023-09-19T11:50:20;99784.47;;;20.92;45.68
46223;BME280;31943;51.410;7.564;2023-09-19T11:52:47;99785.75;;;21.04;44.85
46223;BME280;31943;51.410;7.564;2023-09-19T11:55:14;99792.97;;;21.00;44.67
46223;BME280;31943;51.410;7.564;2023-09-19T11:57:40;99792.38;;;20.93;44.50
46223;BME280;31943;51.410;7.564;2023-09-19T12:00:07;99800.94;;;21.00;44.39
46223;BME280;31943;51.410;7.564;2023-09-19T12:02:47;99789.06;;;21.09;44.63
46223;BME280;31943;51.410;7.564;2023-09-19T12:05:12;99811.66;;;21.19;44.64
46223;BME280;31943;51.410;7.564;2023-09-19T12:07:43;99798.88;;;21.29;44.36
46223;BME280;31943;51.410;7.564;2023-09-19T12:10:09;99798.88;;;21.29;44.49
46223;BME280;31943;51.410;7.564;2023-09-19T12:12:36;99796.00;;;21.13;44.21
46223;BME280;31943;51.410;7.564;2023-09-19T12:15:02;99803.81;;;21.16;44.25
46223;BME280;31943;51.410;7.564;2023-09-19T12:17:35;99786.59;;;21.26;43.88
46223;BME280;31943;51.410;7.564;2023-09-19T12:20:01;99781.66;;;21.39;44.06
46223;BME280;31943;51.410;7.564;2023-09-19T12:22:39;99782.88;;;21.52;43.48
46223;BME280;31943;51.410;7.564;2023-09-19T12:25:06;99776.28;;;21.41;43.24
46223;BME280;31943;51.410;7.564;2023-09-19T12:27:43;99771.59;;;21.25;43.17
46223;BME280;31943;51.410;7.564;2023-09-19T12:30:10;99771.13;;;21.16;43.01
46223;BME280;31943;51.410;7.564;2023-09-19T12:32:36;99773.00;;;21.34;43.08
46223;BME280;31943;51.410;7.564;2023-09-19T12:35:02;99762.28;;;21.37;43.39
46223;BME280;31943;51.410;7.564;2023-09-19T12:37:29;99760.84;;;21.28;43.62
46223;BME280;31943;51.410;7.564;2023-09-19T12:40:04;99768.22;;;21.22;42.92
46223;BME280;31943;51.410;7.564;2023-09-19T12:42:30;99760.84;;;21.28;43.06
46223;BME280;31943;51.410;7.564;2023-09-19T12:44:57;99754.94;;;21.44;43.47
46223;BME280;31943;51.410;7.564;2023-09-19T12:47:24;99752.66;;;21.35;43.65
46223;BME280;31943;51.410;7.564;2023-09-19T12:50:10;99756.09;;;21.37;44.15
46223;BME280;31943;51.410;7.564;2023-09-19T12:52:38;99743.06;;;21.52;44.58
46223;BME280;31943;51.410;7.564;2023-09-19T12:55:05;99749.34;;;21.50;45.05
46223;BME280;31943;51.410;7.564;2023-09-19T12:57:31;99741.78;;;21.61;45.38
46223;BME280;31943;51.410;7.564;2023-09-19T12:59:58;99735.06;;;21.94;44.89
46223;BME280;31943;51.410;7.564;2023-09-19T13:02:23;99730.91;;;22.07;44.93
46223;BME280;31943;51.410;7.564;2023-09-19T13:04:52;99729.47;;;22.19;45.63
46223;BME280;31943;51.410;7.564;2023-09-19T13:07:42;99720.16;;;22.10;44.38
46223;BME280;31943;51.410;7.564;2023-09-19T13:10:08;99727.19;;;22.11;44.63